sensor_id;sensor_type;location;lat;lon;timestamp;temperature;humidity
8643;DHT22;4359;49.358;11.256;2022-07-29T00:02:08;21.20;93.00
8643;DHT22;4359;49.358;11.256;2022-07-29T00:04:35;21.20;93.10
8643;DHT22;4359;49.358;11.256;2022-07-29T00:07:02;21.20;93.00
8643;DHT22;4359;49.358;11.256;2022-07-29T00:09:28;21.20;93.00
8643;DHT22;4359;49.358;11.256;2022-07-29T00:11:55;21.10;93.00
8643;DHT22;4359;49.358;11.256;2022-07-29T00:14:22;21.10;92.90
8643;DHT22;4359;49.358;11.256;2022-07-29T00:16:47;21.10;92.80
8643;DHT22;4359;49.358;11.256;2022-07-29T00:19:13;21.20;92.80
8643;DHT22;4359;49.358;11.256;2022-07-29T00:21:39;21.20;92.90
8643;DHT22;4359;49.358;11.256;2022-07-29T00:24:04;21.10;92.80
8643;DHT22;4359;49.358;11.256;2022-07-29T00:26:30;21.20;92.60
8643;DHT22;4359;49.358;11.256;2022-07-29T00:29:02;21.20;92.70
8643;DHT22;4359;49.358;11.256;2022-07-29T00:31:28;21.20;92.50
8643;DHT22;4359;49.358;11.256;2022-07-29T00:33:54;21.30;92.50
8643;DHT22;4359;49.358;11.256;2022-07-29T00:36:19;21.30;92.40
8643;DHT22;4359;49.358;11.256;2022-07-29T00:38:47;21.30;92.40
8643;DHT22;4359;49.358;11.256;2022-07-29T00:41:13;21.30;92.40
8643;DHT22;4359;49.358;11.256;2022-07-29T00:43:39;21.30;92.40
8643;DHT22;4359;49.358;11.256;2022-07-29T00:46:04;21.30;92.50
8643;DHT22;4359;49.358;11.256;2022-07-29T00:48:30;21.30;92.40
8643;DHT22;4359;49.358;11.256;2022-07-29T00:50:57;21.20;92.50
8643;DHT22;4359;49.358;11.256;2022-07-29T00:53:24;21.30;92.50
8643;DHT22;4359;49.358;11.256;2022-07-29T00:55:50;21.20;92.50
8643;DHT22;4359;49.358;11.256;2022-07-29T00:58:16;21.20;92.60
8643;DHT22;4359;49.358;11.256;2022-07-29T01:00:42;21.10;92.70
8643;DHT22;4359;49.358;11.256;2022-07-29T01:03:08;21.10;92.80
8643;DHT22;4359;49.358;11.256;2022-07-29T01:05:35;21.00;92.90
8643;DHT22;4359;49.358;11.256;2022-07-29T01:08:01;20.90;93.10
8643;DHT22;4359;49.358;11.256;2022-07-29T01:10:28;20.90;93.30
8643;DHT22;4359;49.358;11.256;2022-07-29T01:12:57;20.90;93.40
8643;DHT22;4359;49.358;11.256;2022-07-29T01:15:23;20.80;93.70
8643;DHT22;4359;49.358;11.256;2022-07-29T01:18:22;20.80;93.90
8643;DHT22;4359;49.358;11.256;2022-07-29T01:24:11;20.60;94.20
8643;DHT22;4359;49.358;11.256;2022-07-29T01:26:58;20.50;94.50
8643;DHT22;4359;49.358;11.256;2022-07-29T01:29:38;20.30;94.90
8643;DHT22;4359;49.358;11.256;2022-07-29T01:32:28;20.30;94.90
8643;DHT22;4359;49.358;11.256;2022-07-29T01:38:05;20.20;94.90
8643;DHT22;4359;49.358;11.256;2022-07-29T01:40:49;20.30;95.20
8643;DHT22;4359;49.358;11.256;2022-07-29T01:43:19;20.30;94.90
8643;DHT22;4359;49.358;11.256;2022-07-29T01:45:55;20.10;95.00
8643;DHT22;4359;49.358;11.256;2022-07-29T01:48:27;20.00;95.30
8643;DHT22;4359;49.358;11.256;2022-07-29T01:51:02;19.90;95.90
8643;DHT22;4359;49.358;11.256;2022-07-29T01:53:34;19.80;96.10
8643;DHT22;4359;49.358;11.256;2022-07-29T01:56:01;19.60;96.40
8643;DHT22;4359;49.358;11.256;2022-07-29T01:58:28;19.50;96.50
8643;DHT22;4359;49.358;11.256;2022-07-29T02:00:57;19.40;96.50
8643;DHT22;4359;49.358;11.256;2022-07-29T02:03:24;19.40;96.60
8643;DHT22;4359;49.358;11.256;2022-07-29T02:05:53;19.30;96.70
8643;DHT22;4359;49.358;11.256;2022-07-29T02:08:19;19.30;96.80
8643;DHT22;4359;49.358;11.256;2022-07-29T02:10:48;19.40;96.80
8643;DHT22;4359;49.358;11.256;2022-07-29T02:13:15;19.40;97.40
8643;DHT22;4359;49.358;11.256;2022-07-29T02:15:43;19.20;97.60
8643;DHT22;4359;49.358;11.256;2022-07-29T02:18:14;19.10;97.60
8643;DHT22;4359;49.358;11.256;2022-07-29T02:20:47;19.00;97.80
8643;DHT22;4359;49.358;11.256;2022-07-29T02:23:19;18.90;98.00
8643;DHT22;4359;49.358;11.256;2022-07-29T02:25:48;18.90;98.00
8643;DHT22;4359;49.358;11.256;2022-07-29T02:28:15;18.90;98.10
8643;DHT22;4359;49.358;11.256;2022-07-29T02:30:42;18.80;98.40
8643;DHT22;4359;49.358;11.256;2022-07-29T02:33:10;18.80;98.60
8643;DHT22;4359;49.358;11.256;2022-07-29T02:35:39;18.70;98.80
8643;DHT22;4359;49.358;11.256;2022-07-29T02:38:06;18.70;98.90
8643;DHT22;4359;49.358;11.256;2022-07-29T02:41:03;18.60;98.90
8643;DHT22;4359;49.358;11.256;2022-07-29T02:43:30;18.60;99.20
8643;DHT22;4359;49.358;11.256;2022-07-29T02:45:58;18.60;99.30
8643;DHT22;4359;49.358;11.256;2022-07-29T02:48:36;18.60;99.30
8643;DHT22;4359;49.358;11.256;2022-07-29T02:51:17;18.60;99.20
8643;DHT22;4359;49.358;11.256;2022-07-29T02:53:49;18.70;99.20
8643;DHT22;4359;49.358;11.256;2022-07-29T02:56:18;18.70;99.20
8643;DHT22;4359;49.358;11.256;2022-07-29T02:58:56;18.60;99.20
8643;DHT22;4359;49.358;11.256;2022-07-29T03:01:25;18.60;99.40
8643;DHT22;4359;49.358;11.256;2022-07-29T03:03:54;18.60;99.40
8643;DHT22;4359;49.358;11.256;2022-07-29T03:06:23;18.60;99.50
8643;DHT22;4359;49.358;11.256;2022-07-29T03:08:51;18.60;99.60
8643;DHT22;4359;49.358;11.256;2022-07-29T03:11:17;18.50;99.70
8643;DHT22;4359;49.358;11.256;2022-07-29T03:13:44;18.50;99.90
8643;DHT22;4359;49.358;11.256;2022-07-29T03:16:10;18.40;99.90
8643;DHT22;4359;49.358;11.256;2022-07-29T03:18:36;18.40;99.90
8643;DHT22;4359;49.358;11.256;2022-07-29T03:21:03;18.40;99.90
8643;DHT22;4359;49.358;11.256;2022-07-29T03:23:28;18.40;99.90
8643;DHT22;4359;49.358;11.256;2022-07-29T03:25:55;18.30;99.90
8643;DHT22;4359;49.358;11.256;2022-07-29T03:28:21;18.20;99.90
8643;DHT22;4359;49.358;11.256;2022-07-29T03:30:47;18.20;99.90
8643;DHT22;4359;49.358;11.256;2022-07-29T03:33:13;18.20;99.90
8643;DHT22;4359;49.358;11.256;2022-07-29T03:35:39;18.20;99.90
8643;DHT22;4359;49.358;11.256;2022-07-29T03:38:05;18.10;99.90
8643;DHT22;4359;49.358;11.256;2022-07-29T03:40:46;18.10;99.90
8643;DHT22;4359;49.358;11.256;2022-07-29T03:43:15;18.20;99.90
8643;DHT22;4359;49.358;11.256;2022-07-29T03:45:47;18.30;99.70
8643;DHT22;4359;49.358;11.256;2022-07-29T03:48:17;18.30;99.70
8643;DHT22;4359;49.358;11.256;2022-07-29T03:50:43;18.40;99.90
8643;DHT22;4359;49.358;11.256;2022-07-29T03:53:09;18.50;99.60
8643;DHT22;4359;49.358;11.256;2022-07-29T03:55:41;18.50;99.70
8643;DHT22;4359;49.358;11.256;2022-07-29T03:58:10;18.60;99.90
8643;DHT22;4359;49.358;11.256;2022-07-29T04:00:37;18.60;99.90
8643;DHT22;4359;49.358;11.256;2022-07-29T04:03:04;18.50;99.90
8643;DHT22;4359;49.358;11.256;2022-07-29T04:05:30;18.50;99.90
8643;DHT22;4359;49.358;11.256;2022-07-29T04:07:56;18.50;99.90
8643;DHT22;4359;49.358;11.256;2022-07-29T04:10:22;18.50;99.90
8643;DHT22;4359;49.358;11.256;2022-07-29T04:12:49;18.50;99.90
8643;DHT22;4359;49.358;11.256;2022-07-29T04:15:14;18.60;99.90
8643;DHT22;4359;49.358;11.256;2022-07-29T04:17:40;18.50;99.90
8643;DHT22;4359;49.358;11.256;2022-07-29T04:20:06;18.50;99.90
8643;DHT22;4359;49.358;11.256;2022-07-29T04:22:31;18.40;99.90
8643;DHT22;4359;49.358;11.256;2022-07-29T04:24:57;18.40;99.90
8643;DHT22;4359;49.358;11.256;2022-07-29T04:27:23;18.50;99.90
8643;DHT22;4359;49.358;11.256;2022-07-29T04:29:48;18.50;99.90
8643;DHT22;4359;49.358;11.256;2022-07-29T04:32:14;18.40;99.90
8643;DHT22;4359;49.358;11.256;2022-07-29T04:34:40;18.40;99.90
8643;DHT22;4359;49.358;11.256;2022-07-29T04:37:05;18.40;99.90
8643;DHT22;4359;49.358;11.256;2022-07-29T04:39:31;18.40;99.90
8643;DHT22;4359;49.358;11.256;2022-07-29T04:41:56;18.40;99.90
8643;DHT22;4359;49.358;11.256;2022-07-29T04:44:22;18.40;99.90
8643;DHT22;4359;49.358;11.256;2022-07-29T04:46:48;18.30;99.90
8643;DHT22;4359;49.358;11.256;2022-07-29T04:49:13;18.30;99.90
8643;DHT22;4359;49.358;11.256;2022-07-29T04:51:39;18.20;99.90
8643;DHT22;4359;49.358;11.256;2022-07-29T04:54:05;18.20;99.90
8643;DHT22;4359;49.358;11.256;2022-07-29T04:56:31;18.10;99.90
8643;DHT22;4359;49.358;11.256;2022-07-29T04:58:57;18.10;99.90
8643;DHT22;4359;49.358;11.256;2022-07-29T05:01:23;18.00;99.90
8643;DHT22;4359;49.358;11.256;2022-07-29T05:03:48;18.00;99.90
8643;DHT22;4359;49.358;11.256;2022-07-29T05:06:14;17.90;99.90
8643;DHT22;4359;49.358;11.256;2022-07-29T05:08:40;17.80;99.90
8643;DHT22;4359;49.358;11.256;2022-07-29T05:11:05;17.70;99.90
8643;DHT22;4359;49.358;11.256;2022-07-29T05:13:31;17.70;99.90
8643;DHT22;4359;49.358;11.256;2022-07-29T05:15:57;17.60;99.90
8643;DHT22;4359;49.358;11.256;2022-07-29T05:18:27;17.50;99.90
8643;DHT22;4359;49.358;11.256;2022-07-29T05:20:53;17.50;99.90
8643;DHT22;4359;49.358;11.256;2022-07-29T05:23:19;17.50;99.90
8643;DHT22;4359;49.358;11.256;2022-07-29T05:25:45;17.50;99.90
8643;DHT22;4359;49.358;11.256;2022-07-29T05:28:11;17.50;99.90
8643;DHT22;4359;49.358;11.256;2022-07-29T05:30:37;17.60;99.90
8643;DHT22;4359;49.358;11.256;2022-07-29T05:33:03;17.70;99.90
8643;DHT22;4359;49.358;11.256;2022-07-29T05:35:29;17.80;99.90
8643;DHT22;4359;49.358;11.256;2022-07-29T05:37:54;18.00;99.90
8643;DHT22;4359;49.358;11.256;2022-07-29T05:40:20;18.40;99.90
8643;DHT22;4359;49.358;11.256;2022-07-29T05:42:46;18.70;99.90
8643;DHT22;4359;49.358;11.256;2022-07-29T05:45:11;19.20;99.90
8643;DHT22;4359;49.358;11.256;2022-07-29T05:47:37;19.50;99.90
8643;DHT22;4359;49.358;11.256;2022-07-29T05:50:03;19.70;99.90
8643;DHT22;4359;49.358;11.256;2022-07-29T05:52:29;19.80;99.90
8643;DHT22;4359;49.358;11.256;2022-07-29T05:54:55;19.90;99.90
8643;DHT22;4359;49.358;11.256;2022-07-29T05:57:23;20.00;99.90
8643;DHT22;4359;49.358;11.256;2022-07-29T05:59:50;20.20;99.90
8643;DHT22;4359;49.358;11.256;2022-07-29T06:02:16;20.40;99.50
8643;DHT22;4359;49.358;11.256;2022-07-29T06:04:42;20.70;99.60
8643;DHT22;4359;49.358;11.256;2022-07-29T06:07:08;20.90;98.80
8643;DHT22;4359;49.358;11.256;2022-07-29T06:09:34;21.20;98.70
8643;DHT22;4359;49.358;11.256;2022-07-29T06:12:00;21.40;98.10
8643;DHT22;4359;49.358;11.256;2022-07-29T06:14:26;21.60;97.90
8643;DHT22;4359;49.358;11.256;2022-07-29T06:16:54;21.80;97.60
8643;DHT22;4359;49.358;11.256;2022-07-29T06:19:20;22.10;97.20
8643;DHT22;4359;49.358;11.256;2022-07-29T06:21:46;22.40;96.80
8643;DHT22;4359;49.358;11.256;2022-07-29T06:24:13;22.60;96.20
8643;DHT22;4359;49.358;11.256;2022-07-29T06:26:40;22.70;96.10
8643;DHT22;4359;49.358;11.256;2022-07-29T06:29:06;22.70;96.40
8643;DHT22;4359;49.358;11.256;2022-07-29T06:31:32;22.70;96.20
8643;DHT22;4359;49.358;11.256;2022-07-29T06:33:58;22.70;96.60
8643;DHT22;4359;49.358;11.256;2022-07-29T06:36:23;22.70;96.20
8643;DHT22;4359;49.358;11.256;2022-07-29T06:38:49;22.50;96.40
8643;DHT22;4359;49.358;11.256;2022-07-29T06:41:14;22.40;96.20
8643;DHT22;4359;49.358;11.256;2022-07-29T06:43:43;22.40;96.60
8643;DHT22;4359;49.358;11.256;2022-07-29T06:46:11;22.40;96.70
8643;DHT22;4359;49.358;11.256;2022-07-29T06:48:38;22.80;96.70
8643;DHT22;4359;49.358;11.256;2022-07-29T06:51:06;23.00;96.40
8643;DHT22;4359;49.358;11.256;2022-07-29T06:53:33;23.00;96.90
8643;DHT22;4359;49.358;11.256;2022-07-29T06:56:00;23.00;96.30
8643;DHT22;4359;49.358;11.256;2022-07-29T06:58:27;23.00;96.40
8643;DHT22;4359;49.358;11.256;2022-07-29T07:00:53;22.90;96.60
8643;DHT22;4359;49.358;11.256;2022-07-29T07:03:19;22.80;96.40
8643;DHT22;4359;49.358;11.256;2022-07-29T07:05:45;22.70;96.40
8643;DHT22;4359;49.358;11.256;2022-07-29T07:08:12;22.70;96.30
8643;DHT22;4359;49.358;11.256;2022-07-29T07:10:38;22.80;96.20
8643;DHT22;4359;49.358;11.256;2022-07-29T07:13:05;23.10;96.30
8643;DHT22;4359;49.358;11.256;2022-07-29T07:15:31;23.40;95.60
8643;DHT22;4359;49.358;11.256;2022-07-29T07:17:57;23.50;95.80
8643;DHT22;4359;49.358;11.256;2022-07-29T07:20:23;23.60;95.40
8643;DHT22;4359;49.358;11.256;2022-07-29T07:22:49;23.90;95.40
8643;DHT22;4359;49.358;11.256;2022-07-29T07:25:15;24.10;95.20
8643;DHT22;4359;49.358;11.256;2022-07-29T07:27:43;24.40;95.00
8643;DHT22;4359;49.358;11.256;2022-07-29T07:30:09;24.50;94.50
8643;DHT22;4359;49.358;11.256;2022-07-29T07:32:35;24.80;94.50
8643;DHT22;4359;49.358;11.256;2022-07-29T07:35:01;25.00;94.60
8643;DHT22;4359;49.358;11.256;2022-07-29T07:37:27;25.30;94.10
8643;DHT22;4359;49.358;11.256;2022-07-29T07:39:53;25.90;94.20
8643;DHT22;4359;49.358;11.256;2022-07-29T07:42:19;26.10;92.70
8643;DHT22;4359;49.358;11.256;2022-07-29T07:44:45;26.20;93.10
8643;DHT22;4359;49.358;11.256;2022-07-29T07:47:12;26.10;92.50
8643;DHT22;4359;49.358;11.256;2022-07-29T07:49:37;25.70;93.40
8643;DHT22;4359;49.358;11.256;2022-07-29T07:52:04;25.50;93.80
8643;DHT22;4359;49.358;11.256;2022-07-29T07:54:30;25.30;93.30
8643;DHT22;4359;49.358;11.256;2022-07-29T07:56:56;25.30;93.60
8643;DHT22;4359;49.358;11.256;2022-07-29T07:59:22;25.70;93.60
8643;DHT22;4359;49.358;11.256;2022-07-29T08:01:48;26.00;93.40
8643;DHT22;4359;49.358;11.256;2022-07-29T08:04:14;26.00;93.40
8643;DHT22;4359;49.358;11.256;2022-07-29T08:06:40;26.30;92.90
8643;DHT22;4359;49.358;11.256;2022-07-29T08:09:06;26.80;92.70
8643;DHT22;4359;49.358;11.256;2022-07-29T08:11:31;27.30;92.20
8643;DHT22;4359;49.358;11.256;2022-07-29T08:13:58;27.80;92.20
8643;DHT22;4359;49.358;11.256;2022-07-29T08:16:23;28.20;91.70
8643;DHT22;4359;49.358;11.256;2022-07-29T08:18:50;28.10;91.70
8643;DHT22;4359;49.358;11.256;2022-07-29T08:21:16;28.80;91.10
8643;DHT22;4359;49.358;11.256;2022-07-29T08:23:46;29.40;90.10
8643;DHT22;4359;49.358;11.256;2022-07-29T08:26:14;29.40;89.50
8643;DHT22;4359;49.358;11.256;2022-07-29T08:28:42;29.50;88.00
8643;DHT22;4359;49.358;11.256;2022-07-29T08:31:12;28.90;89.80
8643;DHT22;4359;49.358;11.256;2022-07-29T08:33:38;28.90;90.40
8643;DHT22;4359;49.358;11.256;2022-07-29T08:36:05;28.90;90.10
8643;DHT22;4359;49.358;11.256;2022-07-29T08:38:31;28.60;89.50
8643;DHT22;4359;49.358;11.256;2022-07-29T08:40:58;28.20;90.80
8643;DHT22;4359;49.358;11.256;2022-07-29T08:43:25;27.90;91.40
8643;DHT22;4359;49.358;11.256;2022-07-29T08:45:51;27.80;91.40
8643;DHT22;4359;49.358;11.256;2022-07-29T08:48:23;27.80;91.40
8643;DHT22;4359;49.358;11.256;2022-07-29T08:50:55;28.20;91.30
8643;DHT22;4359;49.358;11.256;2022-07-29T08:53:24;28.00;91.40
8643;DHT22;4359;49.358;11.256;2022-07-29T08:55:52;28.00;91.10
8643;DHT22;4359;49.358;11.256;2022-07-29T08:58:18;27.60;91.30
8643;DHT22;4359;49.358;11.256;2022-07-29T09:00:55;27.20;92.00
8643;DHT22;4359;49.358;11.256;2022-07-29T09:03:23;27.70;92.30
8643;DHT22;4359;49.358;11.256;2022-07-29T09:05:50;28.00;91.30
8643;DHT22;4359;49.358;11.256;2022-07-29T09:08:17;27.80;91.90
8643;DHT22;4359;49.358;11.256;2022-07-29T09:10:43;27.90;92.10
8643;DHT22;4359;49.358;11.256;2022-07-29T09:13:09;28.20;91.30
8643;DHT22;4359;49.358;11.256;2022-07-29T09:15:35;27.80;91.70
8643;DHT22;4359;49.358;11.256;2022-07-29T09:18:01;27.80;92.00
8643;DHT22;4359;49.358;11.256;2022-07-29T09:20:28;28.00;91.70
8643;DHT22;4359;49.358;11.256;2022-07-29T09:23:12;28.30;91.50
8643;DHT22;4359;49.358;11.256;2022-07-29T09:25:39;28.80;91.60
8643;DHT22;4359;49.358;11.256;2022-07-29T09:28:17;29.30;90.40
8643;DHT22;4359;49.358;11.256;2022-07-29T09:30:57;29.50;90.70
8643;DHT22;4359;49.358;11.256;2022-07-29T09:33:25;29.60;90.90
8643;DHT22;4359;49.358;11.256;2022-07-29T09:36:14;29.80;90.60
8643;DHT22;4359;49.358;11.256;2022-07-29T09:38:39;30.40;90.10
8643;DHT22;4359;49.358;11.256;2022-07-29T09:41:05;30.50;89.90
8643;DHT22;4359;49.358;11.256;2022-07-29T09:43:33;30.90;89.50
8643;DHT22;4359;49.358;11.256;2022-07-29T09:46:12;31.20;89.00
8643;DHT22;4359;49.358;11.256;2022-07-29T09:48:38;30.70;90.10
8643;DHT22;4359;49.358;11.256;2022-07-29T09:51:04;30.60;90.20
8643;DHT22;4359;49.358;11.256;2022-07-29T09:53:35;30.60;90.10
8643;DHT22;4359;49.358;11.256;2022-07-29T09:56:03;30.70;90.30
8643;DHT22;4359;49.358;11.256;2022-07-29T09:58:29;30.60;90.20
8643;DHT22;4359;49.358;11.256;2022-07-29T10:00:55;30.10;91.10
8643;DHT22;4359;49.358;11.256;2022-07-29T10:03:21;30.30;91.50
8643;DHT22;4359;49.358;11.256;2022-07-29T10:06:11;30.70;90.20
8643;DHT22;4359;49.358;11.256;2022-07-29T10:08:38;30.80;90.00
8643;DHT22;4359;49.358;11.256;2022-07-29T10:11:11;30.80;90.20
8643;DHT22;4359;49.358;11.256;2022-07-29T10:13:38;31.20;89.80
8643;DHT22;4359;49.358;11.256;2022-07-29T10:16:04;31.80;89.70
8643;DHT22;4359;49.358;11.256;2022-07-29T10:18:30;32.20;88.40
8643;DHT22;4359;49.358;11.256;2022-07-29T10:20:55;32.30;88.20
8643;DHT22;4359;49.358;11.256;2022-07-29T10:23:22;32.20;89.20
8643;DHT22;4359;49.358;11.256;2022-07-29T10:25:49;32.10;86.90
8643;DHT22;4359;49.358;11.256;2022-07-29T10:28:15;32.20;87.70
8643;DHT22;4359;49.358;11.256;2022-07-29T10:30:41;32.10;87.70
8643;DHT22;4359;49.358;11.256;2022-07-29T10:41:53;30.80;90.30
8643;DHT22;4359;49.358;11.256;2022-07-29T10:44:22;30.80;90.40
8643;DHT22;4359;49.358;11.256;2022-07-29T10:46:50;31.40;89.60
8643;DHT22;4359;49.358;11.256;2022-07-29T10:49:18;32.20;88.40
8643;DHT22;4359;49.358;11.256;2022-07-29T10:52:00;32.80;87.80
8643;DHT22;4359;49.358;11.256;2022-07-29T10:54:47;33.60;85.90
8643;DHT22;4359;49.358;11.256;2022-07-29T10:57:28;33.30;85.30
8643;DHT22;4359;49.358;11.256;2022-07-29T11:04:59;30.80;89.80
8643;DHT22;4359;49.358;11.256;2022-07-29T11:07:26;30.20;90.40
8643;DHT22;4359;49.358;11.256;2022-07-29T11:15:11;29.50;91.10
8643;DHT22;4359;49.358;11.256;2022-07-29T11:20:43;29.80;91.20
8643;DHT22;4359;49.358;11.256;2022-07-29T11:31:44;29.40;91.40
8643;DHT22;4359;49.358;11.256;2022-07-29T11:34:31;29.60;91.40
8643;DHT22;4359;49.358;11.256;2022-07-29T11:39:33;29.60;91.80
8643;DHT22;4359;49.358;11.256;2022-07-29T11:45:12;29.90;90.90
8643;DHT22;4359;49.358;11.256;2022-07-29T11:47:52;30.00;90.80
8643;DHT22;4359;49.358;11.256;2022-07-29T11:50:38;29.70;91.30
8643;DHT22;4359;49.358;11.256;2022-07-29T11:53:12;29.60;91.30
8643;DHT22;4359;49.358;11.256;2022-07-29T11:55:39;29.40;91.30
8643;DHT22;4359;49.358;11.256;2022-07-29T11:58:05;29.40;91.60
8643;DHT22;4359;49.358;11.256;2022-07-29T12:03:00;29.30;91.90
8643;DHT22;4359;49.358;11.256;2022-07-29T12:05:44;29.40;91.60
8643;DHT22;4359;49.358;11.256;2022-07-29T12:08:15;29.20;91.90
8643;DHT22;4359;49.358;11.256;2022-07-29T12:10:44;29.60;91.90
8643;DHT22;4359;49.358;11.256;2022-07-29T12:13:11;30.70;90.60
8643;DHT22;4359;49.358;11.256;2022-07-29T12:15:37;31.50;88.60
8643;DHT22;4359;49.358;11.256;2022-07-29T12:18:15;32.00;89.60
8643;DHT22;4359;49.358;11.256;2022-07-29T12:20:42;32.70;87.40
8643;DHT22;4359;49.358;11.256;2022-07-29T12:23:08;33.40;86.90
8643;DHT22;4359;49.358;11.256;2022-07-29T12:25:35;33.90;85.10
8643;DHT22;4359;49.358;11.256;2022-07-29T12:28:07;34.30;83.80
8643;DHT22;4359;49.358;11.256;2022-07-29T12:30:48;34.60;81.90
8643;DHT22;4359;49.358;11.256;2022-07-29T12:33:26;34.60;81.10
8643;DHT22;4359;49.358;11.256;2022-07-29T12:36:00;34.10;81.60
8643;DHT22;4359;49.358;11.256;2022-07-29T12:38:27;33.90;82.80
8643;DHT22;4359;49.358;11.256;2022-07-29T12:40:53;34.00;81.90
8643;DHT22;4359;49.358;11.256;2022-07-29T12:43:24;33.90;82.00
8643;DHT22;4359;49.358;11.256;2022-07-29T12:45:52;34.30;79.60
8643;DHT22;4359;49.358;11.256;2022-07-29T12:48:36;33.50;80.10
8643;DHT22;4359;49.358;11.256;2022-07-29T12:51:04;32.80;81.40
8643;DHT22;4359;49.358;11.256;2022-07-29T12:53:31;32.20;82.90
8643;DHT22;4359;49.358;11.256;2022-07-29T12:55:57;31.60;84.40
8643;DHT22;4359;49.358;11.256;2022-07-29T12:58:38;30.70;84.90
8643;DHT22;4359;49.358;11.256;2022-07-29T13:03:50;29.30;87.80
8643;DHT22;4359;49.358;11.256;2022-07-29T13:06:35;28.70;85.70
8643;DHT22;4359;49.358;11.256;2022-07-29T13:11:40;27.10;93.40
8643;DHT22;4359;49.358;11.256;2022-07-29T13:14:08;26.20;96.60
8643;DHT22;4359;49.358;11.256;2022-07-29T13:16:35;25.10;98.10
8643;DHT22;4359;49.358;11.256;2022-07-29T13:19:19;23.90;99.90
8643;DHT22;4359;49.358;11.256;2022-07-29T13:21:45;22.90;99.90
8643;DHT22;4359;49.358;11.256;2022-07-29T13:24:10;22.20;99.90
8643;DHT22;4359;49.358;11.256;2022-07-29T13:26:39;21.70;99.90
8643;DHT22;4359;49.358;11.256;2022-07-29T13:29:06;21.50;99.90
8643;DHT22;4359;49.358;11.256;2022-07-29T13:31:31;21.00;99.90
8643;DHT22;4359;49.358;11.256;2022-07-29T13:33:57;20.50;99.90
8643;DHT22;4359;49.358;11.256;2022-07-29T13:36:23;20.40;99.90
8643;DHT22;4359;49.358;11.256;2022-07-29T13:38:48;20.40;99.90
8643;DHT22;4359;49.358;11.256;2022-07-29T13:41:14;20.40;99.90
8643;DHT22;4359;49.358;11.256;2022-07-29T13:43:40;20.50;99.90
8643;DHT22;4359;49.358;11.256;2022-07-29T13:46:05;20.60;99.90
8643;DHT22;4359;49.358;11.256;2022-07-29T13:48:31;20.70;99.90
8643;DHT22;4359;49.358;11.256;2022-07-29T13:50:57;20.60;99.90
8643;DHT22;4359;49.358;11.256;2022-07-29T13:53:22;20.60;99.90
8643;DHT22;4359;49.358;11.256;2022-07-29T13:55:48;20.60;99.90
8643;DHT22;4359;49.358;11.256;2022-07-29T13:58:13;20.60;99.90
8643;DHT22;4359;49.358;11.256;2022-07-29T14:00:39;20.60;99.90
8643;DHT22;4359;49.358;11.256;2022-07-29T14:03:05;20.60;99.90
8643;DHT22;4359;49.358;11.256;2022-07-29T14:05:31;20.60;99.90
8643;DHT22;4359;49.358;11.256;2022-07-29T14:07:57;20.80;99.90
8643;DHT22;4359;49.358;11.256;2022-07-29T14:10:22;21.20;99.90
8643;DHT22;4359;49.358;11.256;2022-07-29T14:12:48;21.50;99.90
8643;DHT22;4359;49.358;11.256;2022-07-29T14:15:14;21.70;99.90
8643;DHT22;4359;49.358;11.256;2022-07-29T14:17:39;21.90;99.90
8643;DHT22;4359;49.358;11.256;2022-07-29T14:20:05;22.40;99.90
8643;DHT22;4359;49.358;11.256;2022-07-29T14:22:31;22.90;99.90
8643;DHT22;4359;49.358;11.256;2022-07-29T14:24:58;23.20;99.90
8643;DHT22;4359;49.358;11.256;2022-07-29T14:27:24;24.10;99.90
8643;DHT22;4359;49.358;11.256;2022-07-29T14:29:50;24.90;99.90
8643;DHT22;4359;49.358;11.256;2022-07-29T14:32:15;25.70;99.90
8643;DHT22;4359;49.358;11.256;2022-07-29T14:34:41;26.70;99.90
8643;DHT22;4359;49.358;11.256;2022-07-29T14:37:07;27.20;99.90
8643;DHT22;4359;49.358;11.256;2022-07-29T14:39:34;27.70;99.90
8643;DHT22;4359;49.358;11.256;2022-07-29T14:42:01;28.00;99.90
8643;DHT22;4359;49.358;11.256;2022-07-29T14:44:26;28.20;99.90
8643;DHT22;4359;49.358;11.256;2022-07-29T14:46:59;27.60;99.90
8643;DHT22;4359;49.358;11.256;2022-07-29T14:49:26;27.00;99.90
8643;DHT22;4359;49.358;11.256;2022-07-29T14:51:52;27.10;99.90
8643;DHT22;4359;49.358;11.256;2022-07-29T14:54:18;27.50;99.90
8643;DHT22;4359;49.358;11.256;2022-07-29T14:56:43;27.30;99.90
8643;DHT22;4359;49.358;11.256;2022-07-29T14:59:09;27.30;99.90
8643;DHT22;4359;49.358;11.256;2022-07-29T15:01:35;27.30;99.90
8643;DHT22;4359;49.358;11.256;2022-07-29T15:04:00;28.00;99.90
8643;DHT22;4359;49.358;11.256;2022-07-29T15:06:26;28.50;99.90
8643;DHT22;4359;49.358;11.256;2022-07-29T15:08:52;29.30;99.90
8643;DHT22;4359;49.358;11.256;2022-07-29T15:11:18;29.80;99.90
8643;DHT22;4359;49.358;11.256;2022-07-29T15:13:43;30.10;99.90
8643;DHT22;4359;49.358;11.256;2022-07-29T15:16:09;30.10;99.90
8643;DHT22;4359;49.358;11.256;2022-07-29T15:18:35;29.90;99.90
8643;DHT22;4359;49.358;11.256;2022-07-29T15:21:03;30.00;99.90
8643;DHT22;4359;49.358;11.256;2022-07-29T15:23:28;29.80;99.90
8643;DHT22;4359;49.358;11.256;2022-07-29T15:25:54;29.20;99.90
8643;DHT22;4359;49.358;11.256;2022-07-29T15:28:20;28.60;99.90
8643;DHT22;4359;49.358;11.256;2022-07-29T15:30:45;28.20;99.90
8643;DHT22;4359;49.358;11.256;2022-07-29T15:33:11;27.60;99.90
8643;DHT22;4359;49.358;11.256;2022-07-29T15:35:37;27.40;99.90
8643;DHT22;4359;49.358;11.256;2022-07-29T15:38:03;26.80;99.90
8643;DHT22;4359;49.358;11.256;2022-07-29T15:40:29;26.40;99.90
8643;DHT22;4359;49.358;11.256;2022-07-29T15:42:55;26.10;99.90
8643;DHT22;4359;49.358;11.256;2022-07-29T15:45:20;26.10;99.90
8643;DHT22;4359;49.358;11.256;2022-07-29T15:47:46;26.10;99.90
8643;DHT22;4359;49.358;11.256;2022-07-29T15:50:12;25.90;99.90
8643;DHT22;4359;49.358;11.256;2022-07-29T15:52:41;25.60;99.90
8643;DHT22;4359;49.358;11.256;2022-07-29T15:55:07;25.30;99.90
8643;DHT22;4359;49.358;11.256;2022-07-29T15:57:34;25.10;99.90
8643;DHT22;4359;49.358;11.256;2022-07-29T15:59:59;24.80;99.90
8643;DHT22;4359;49.358;11.256;2022-07-29T16:02:25;24.30;99.90
8643;DHT22;4359;49.358;11.256;2022-07-29T16:04:50;23.50;99.90
8643;DHT22;4359;49.358;11.256;2022-07-29T16:07:16;22.80;99.90
8643;DHT22;4359;49.358;11.256;2022-07-29T16:09:43;22.40;99.90
8643;DHT22;4359;49.358;11.256;2022-07-29T16:12:09;22.10;99.90
8643;DHT22;4359;49.358;11.256;2022-07-29T16:14:34;21.70;99.90
8643;DHT22;4359;49.358;11.256;2022-07-29T16:17:00;21.50;99.90
8643;DHT22;4359;49.358;11.256;2022-07-29T16:19:31;21.10;99.90
8643;DHT22;4359;49.358;11.256;2022-07-29T16:21:56;20.90;99.90
8643;DHT22;4359;49.358;11.256;2022-07-29T16:24:22;20.60;99.90
8643;DHT22;4359;49.358;11.256;2022-07-29T16:26:54;20.30;99.90
8643;DHT22;4359;49.358;11.256;2022-07-29T16:29:20;20.10;99.90
8643;DHT22;4359;49.358;11.256;2022-07-29T16:31:45;19.90;99.90
8643;DHT22;4359;49.358;11.256;2022-07-29T16:34:11;19.80;99.90
8643;DHT22;4359;49.358;11.256;2022-07-29T16:36:36;19.80;99.90
8643;DHT22;4359;49.358;11.256;2022-07-29T16:39:02;19.80;99.90
8643;DHT22;4359;49.358;11.256;2022-07-29T16:41:30;19.70;99.90